ASA66 PAYA-PAJN
Flight info
| Callsign | ASA66 |
|---|---|
| Flight time | 0h 38m |
| Altitude | 31000 |
| Route | YAK HAPIT SSR |
| Aircraft | B737/M-SDE2E3FGHIRWXY/LB1 |
Departure
| Time | 2026-04-25 04:20 |
|---|---|
| Airport | Yakutat Airport (PAYA) |
Arrival
| Time | 2026-04-25 04:59 |
|---|---|
| Airport | Juneau International Airport (PAJN) |
| Time | Latitude | Longitude | Altitude | Speed | Heading |
|---|---|---|---|---|---|
| 2026-04-25 04:09 | 59.51013 | -139.66671 | 47 ft | 0 kts | 318° |
| 2026-04-25 04:15 | 59.50996 | -139.66674 | 46 ft | 7 kts | 138° |
| 2026-04-25 04:15 | 59.50954 | -139.66582 | 47 ft | 10 kts | 131° |
| 2026-04-25 04:15 | 59.50918 | -139.66482 | 48 ft | 9 kts | 108° |
| 2026-04-25 04:16 | 59.50932 | -139.66369 | 48 ft | 10 kts | 55° |
| 2026-04-25 04:16 | 59.50988 | -139.66257 | 47 ft | 13 kts | 28° |
| 2026-04-25 04:16 | 59.51058 | -139.66323 | 46 ft | 12 kts | 319° |
| 2026-04-25 04:16 | 59.51102 | -139.66413 | 48 ft | 1 kts | 230° |
| 2026-04-25 04:17 | 59.51078 | -139.66374 | 47 ft | 10 kts | 141° |
| 2026-04-25 04:17 | 59.51066 | -139.66355 | 47 ft | 0 kts | 140° |
| 2026-04-25 04:19 | 59.51050 | -139.66327 | 45 ft | 25 kts | 138° |
| 2026-04-25 04:19 | 59.50667 | -139.65574 | 53 ft | 125 kts | 134° |
| 2026-04-25 04:20 | 59.49916 | -139.64122 | 533 ft | 164 kts | 138° |
| 2026-04-25 04:20 | 59.49235 | -139.62368 | 1923 ft | 161 kts | 116° |
| 2026-04-25 04:20 | 59.48744 | -139.60341 | 3043 ft | 175 kts | 118° |
| 2026-04-25 04:20 | 59.48131 | -139.57981 | 3667 ft | 213 kts | 118° |
| 2026-04-25 04:21 | 59.47383 | -139.55140 | 4195 ft | 249 kts | 119° |
| 2026-04-25 04:21 | 59.46573 | -139.52079 | 5443 ft | 254 kts | 119° |
| 2026-04-25 04:21 | 59.45742 | -139.48965 | 6642 ft | 262 kts | 120° |
| 2026-04-25 04:21 | 59.44879 | -139.45753 | 7718 ft | 270 kts | 121° |
| 2026-04-25 04:22 | 59.43988 | -139.42457 | 8805 ft | 277 kts | 122° |
| 2026-04-25 04:22 | 59.43068 | -139.39070 | 9882 ft | 285 kts | 122° |
| 2026-04-25 04:22 | 59.42109 | -139.35560 | 10686 ft | 303 kts | 123° |
| 2026-04-25 04:22 | 59.41053 | -139.31727 | 11031 ft | 332 kts | 122° |
| 2026-04-25 04:23 | 59.39940 | -139.27676 | 11909 ft | 342 kts | 122° |
| 2026-04-25 04:23 | 59.38808 | -139.23551 | 12985 ft | 345 kts | 122° |
| 2026-04-25 04:23 | 59.37665 | -139.19386 | 14061 ft | 349 kts | 122° |
| 2026-04-25 04:23 | 59.36503 | -139.15169 | 14985 ft | 354 kts | 122° |
| 2026-04-25 04:24 | 59.35326 | -139.10899 | 15942 ft | 358 kts | 122° |
| 2026-04-25 04:24 | 59.34137 | -139.06598 | 16927 ft | 361 kts | 122° |
| 2026-04-25 04:24 | 59.33342 | -139.03730 | 17563 ft | 363 kts | 122° |
| 2026-04-25 04:24 | 59.31713 | -138.97873 | 18808 ft | 369 kts | 123° |
| 2026-04-25 04:25 | 59.30474 | -138.93431 | 19619 ft | 373 kts | 123° |
| 2026-04-25 04:25 | 59.29224 | -138.88956 | 20431 ft | 377 kts | 123° |
| 2026-04-25 04:25 | 59.27959 | -138.84440 | 21238 ft | 381 kts | 123° |
| 2026-04-25 04:25 | 59.26679 | -138.79881 | 22041 ft | 385 kts | 123° |
| 2026-04-25 04:26 | 59.25384 | -138.75279 | 22832 ft | 388 kts | 123° |
| 2026-04-25 04:26 | 59.24073 | -138.70626 | 23594 ft | 393 kts | 123° |
| 2026-04-25 04:26 | 59.22748 | -138.65933 | 24270 ft | 397 kts | 123° |
| 2026-04-25 04:26 | 59.21407 | -138.61196 | 24880 ft | 400 kts | 123° |
| 2026-04-25 04:27 | 59.20055 | -138.56425 | 25536 ft | 403 kts | 123° |
| 2026-04-25 04:27 | 59.18692 | -138.51627 | 26185 ft | 405 kts | 123° |
| 2026-04-25 04:27 | 59.17322 | -138.46812 | 26813 ft | 408 kts | 123° |
| 2026-04-25 04:27 | 59.15938 | -138.41962 | 27397 ft | 411 kts | 123° |
| 2026-04-25 04:28 | 59.14538 | -138.37068 | 27902 ft | 416 kts | 123° |
| 2026-04-25 04:28 | 59.13121 | -138.32124 | 28454 ft | 419 kts | 123° |
| 2026-04-25 04:28 | 59.11704 | -138.27183 | 29202 ft | 417 kts | 123° |
| 2026-04-25 04:28 | 59.10313 | -138.22342 | 30046 ft | 413 kts | 124° |
| 2026-04-25 04:29 | 59.08919 | -138.17500 | 30843 ft | 409 kts | 124° |
| 2026-04-25 04:29 | 59.07523 | -138.12668 | 31270 ft | 411 kts | 124° |
| 2026-04-25 04:29 | 59.06118 | -138.07820 | 31349 ft | 412 kts | 124° |
| 2026-04-25 04:30 | 59.03312 | -137.98156 | 31376 ft | 410 kts | 124° |
| 2026-04-25 04:30 | 59.00504 | -137.88531 | 31395 ft | 409 kts | 124° |
| 2026-04-25 04:30 | 58.98833 | -137.84137 | 31373 ft | 401 kts | 141° |
| 2026-04-25 04:31 | 58.96602 | -137.80983 | 31392 ft | 396 kts | 154° |
| 2026-04-25 04:31 | 58.94056 | -137.79033 | 31380 ft | 393 kts | 168° |
| 2026-04-25 04:31 | 58.91378 | -137.77956 | 31392 ft | 393 kts | 171° |
| 2026-04-25 04:32 | 58.86003 | -137.76079 | 31362 ft | 391 kts | 171° |
| 2026-04-25 04:32 | 58.80665 | -137.74197 | 31376 ft | 389 kts | 171° |
| 2026-04-25 04:33 | 58.75360 | -137.72263 | 31367 ft | 387 kts | 170° |
| 2026-04-25 04:33 | 58.70054 | -137.70302 | 31371 ft | 389 kts | 170° |
| 2026-04-25 04:34 | 58.64744 | -137.68339 | 31370 ft | 388 kts | 170° |
| 2026-04-25 04:34 | 58.59442 | -137.66384 | 31385 ft | 388 kts | 170° |
| 2026-04-25 04:35 | 58.54144 | -137.64438 | 31385 ft | 388 kts | 170° |
| 2026-04-25 04:35 | 58.48848 | -137.62498 | 31385 ft | 388 kts | 170° |
| 2026-04-25 04:36 | 58.43543 | -137.60561 | 31391 ft | 388 kts | 170° |
| 2026-04-25 04:36 | 58.38232 | -137.58627 | 31385 ft | 389 kts | 170° |
| 2026-04-25 04:37 | 58.32911 | -137.56695 | 31382 ft | 388 kts | 170° |
| 2026-04-25 04:37 | 58.27610 | -137.54774 | 31382 ft | 388 kts | 169° |
| 2026-04-25 04:37 | 58.25069 | -137.53062 | 31375 ft | 392 kts | 152° |
| 2026-04-25 04:38 | 58.22885 | -137.49942 | 31380 ft | 397 kts | 138° |
| 2026-04-25 04:38 | 58.21199 | -137.45749 | 31381 ft | 405 kts | 123° |
| 2026-04-25 04:38 | 58.20085 | -137.40808 | 31259 ft | 413 kts | 110° |
| 2026-04-25 04:38 | 58.19736 | -137.35378 | 30642 ft | 424 kts | 96° |
| 2026-04-25 04:39 | 58.19704 | -137.29712 | 29979 ft | 422 kts | 95° |
| 2026-04-25 04:39 | 58.19726 | -137.24260 | 29389 ft | 417 kts | 94° |
| 2026-04-25 04:39 | 58.19757 | -137.18810 | 28825 ft | 411 kts | 94° |
| 2026-04-25 04:39 | 58.19776 | -137.13429 | 28249 ft | 406 kts | 94° |
| 2026-04-25 04:40 | 58.19781 | -137.08118 | 27668 ft | 401 kts | 95° |
| 2026-04-25 04:40 | 58.19773 | -137.02850 | 27101 ft | 397 kts | 95° |
| 2026-04-25 04:40 | 58.19757 | -136.97636 | 26540 ft | 394 kts | 95° |
| 2026-04-25 04:40 | 58.19733 | -136.92460 | 25993 ft | 391 kts | 95° |
| 2026-04-25 04:41 | 58.19706 | -136.87326 | 25445 ft | 388 kts | 95° |
| 2026-04-25 04:41 | 58.19677 | -136.82232 | 24912 ft | 386 kts | 95° |
| 2026-04-25 04:41 | 58.19645 | -136.77146 | 24346 ft | 385 kts | 94° |
| 2026-04-25 04:41 | 58.19611 | -136.72081 | 23755 ft | 384 kts | 94° |
| 2026-04-25 04:42 | 58.19576 | -136.67032 | 23136 ft | 382 kts | 94° |
| 2026-04-25 04:42 | 58.19539 | -136.62033 | 22564 ft | 378 kts | 95° |
| 2026-04-25 04:42 | 58.19502 | -136.57062 | 22002 ft | 375 kts | 95° |
| 2026-04-25 04:42 | 58.19462 | -136.52141 | 21444 ft | 372 kts | 95° |
| 2026-04-25 04:43 | 58.19421 | -136.47255 | 20906 ft | 369 kts | 94° |
| 2026-04-25 04:43 | 58.19379 | -136.42415 | 20375 ft | 366 kts | 95° |
| 2026-04-25 04:43 | 58.19335 | -136.37604 | 19852 ft | 364 kts | 95° |
| 2026-04-25 04:43 | 58.19289 | -136.32819 | 19316 ft | 362 kts | 95° |
| 2026-04-25 04:44 | 58.19241 | -136.28064 | 18751 ft | 361 kts | 95° |
| 2026-04-25 04:44 | 58.19192 | -136.23320 | 18162 ft | 359 kts | 95° |
| 2026-04-25 04:44 | 58.19141 | -136.18610 | 17591 ft | 356 kts | 94° |
| 2026-04-25 04:44 | 58.19089 | -136.13937 | 17032 ft | 353 kts | 94° |
| 2026-04-25 04:45 | 58.19037 | -136.09306 | 16490 ft | 350 kts | 94° |
| 2026-04-25 04:45 | 58.18983 | -136.04714 | 15958 ft | 347 kts | 94° |
| 2026-04-25 04:45 | 58.18927 | -136.00160 | 15434 ft | 345 kts | 94° |
| 2026-04-25 04:45 | 58.18871 | -135.95630 | 14914 ft | 343 kts | 93° |
| 2026-04-25 04:46 | 58.18813 | -135.91122 | 14368 ft | 342 kts | 93° |
| 2026-04-25 04:46 | 58.18753 | -135.86610 | 13786 ft | 341 kts | 93° |
| 2026-04-25 04:46 | 58.18713 | -135.83642 | 13409 ft | 340 kts | 93° |
| 2026-04-25 04:46 | 58.18651 | -135.79173 | 12740 ft | 340 kts | 93° |
| 2026-04-25 04:47 | 58.18587 | -135.74649 | 12022 ft | 344 kts | 93° |
| 2026-04-25 04:47 | 58.18522 | -135.70125 | 11415 ft | 343 kts | 93° |
| 2026-04-25 04:47 | 58.18455 | -135.65627 | 10865 ft | 340 kts | 92° |
| 2026-04-25 04:47 | 58.18366 | -135.59758 | 10375 ft | 329 kts | 92° |
| 2026-04-25 04:48 | 58.18300 | -135.55507 | 10152 ft | 316 kts | 92° |
| 2026-04-25 04:48 | 58.18257 | -135.52734 | 10049 ft | 307 kts | 92° |
| 2026-04-25 04:48 | 58.18194 | -135.48788 | 9991 ft | 291 kts | 92° |
| 2026-04-25 04:48 | 58.18130 | -135.44922 | 9391 ft | 295 kts | 92° |
| 2026-04-25 04:49 | 58.18065 | -135.41047 | 8958 ft | 294 kts | 92° |
| 2026-04-25 04:49 | 58.18000 | -135.37184 | 8565 ft | 292 kts | 92° |
| 2026-04-25 04:49 | 58.17933 | -135.33363 | 8180 ft | 289 kts | 93° |
| 2026-04-25 04:49 | 58.17866 | -135.29580 | 7794 ft | 287 kts | 93° |
| 2026-04-25 04:50 | 58.17900 | -135.25834 | 7405 ft | 285 kts | 79° |
| 2026-04-25 04:50 | 58.18587 | -135.22338 | 7088 ft | 281 kts | 65° |
| 2026-04-25 04:50 | 58.19390 | -135.19031 | 6729 ft | 279 kts | 65° |
| 2026-04-25 04:50 | 58.20192 | -135.15691 | 6342 ft | 280 kts | 65° |
| 2026-04-25 04:51 | 58.20998 | -135.12289 | 5974 ft | 285 kts | 66° |
| 2026-04-25 04:51 | 58.21823 | -135.08816 | 5586 ft | 285 kts | 63° |
| 2026-04-25 04:51 | 58.23034 | -135.05943 | 5192 ft | 285 kts | 36° |
| 2026-04-25 04:51 | 58.24793 | -135.04364 | 4985 ft | 277 kts | 14° |
| 2026-04-25 04:52 | 58.26654 | -135.03669 | 4829 ft | 267 kts | 8° |
| 2026-04-25 04:52 | 58.28478 | -135.03140 | 4707 ft | 263 kts | 8° |
| 2026-04-25 04:52 | 58.30276 | -135.02602 | 4582 ft | 259 kts | 8° |
| 2026-04-25 04:52 | 58.32005 | -135.02059 | 4480 ft | 244 kts | 9° |
| 2026-04-25 04:53 | 58.33632 | -135.01490 | 4239 ft | 231 kts | 15° |
| 2026-04-25 04:53 | 58.34926 | -134.99897 | 3984 ft | 219 kts | 51° |
| 2026-04-25 04:53 | 58.35582 | -134.97395 | 3742 ft | 208 kts | 76° |
| 2026-04-25 04:53 | 58.35732 | -134.94730 | 3512 ft | 198 kts | 89° |
| 2026-04-25 04:54 | 58.35738 | -134.92155 | 3275 ft | 190 kts | 90° |
| 2026-04-25 04:54 | 58.35739 | -134.89688 | 3062 ft | 182 kts | 89° |
| 2026-04-25 04:54 | 58.35741 | -134.87385 | 2868 ft | 166 kts | 89° |
| 2026-04-25 04:54 | 58.35743 | -134.85312 | 2779 ft | 144 kts | 89° |
| 2026-04-25 04:55 | 58.35744 | -134.83476 | 2696 ft | 135 kts | 89° |
| 2026-04-25 04:55 | 58.35753 | -134.81702 | 2693 ft | 135 kts | 87° |
| 2026-04-25 04:55 | 58.35832 | -134.79887 | 2562 ft | 140 kts | 80° |
| 2026-04-25 04:55 | 58.35999 | -134.78046 | 2329 ft | 140 kts | 79° |
| 2026-04-25 04:56 | 58.36156 | -134.76244 | 2063 ft | 137 kts | 81° |
| 2026-04-25 04:56 | 58.36284 | -134.74461 | 1785 ft | 135 kts | 85° |
| 2026-04-25 04:56 | 58.36343 | -134.72658 | 1554 ft | 137 kts | 87° |
| 2026-04-25 04:56 | 58.36377 | -134.70833 | 1342 ft | 138 kts | 88° |
| 2026-04-25 04:57 | 58.36393 | -134.69017 | 1202 ft | 135 kts | 90° |
| 2026-04-25 04:57 | 58.36376 | -134.67259 | 1054 ft | 132 kts | 92° |
| 2026-04-25 04:57 | 58.36326 | -134.65512 | 877 ft | 130 kts | 96° |
| 2026-04-25 04:57 | 58.36185 | -134.63814 | 721 ft | 131 kts | 101° |
| 2026-04-25 04:58 | 58.36049 | -134.62081 | 509 ft | 135 kts | 96° |
| 2026-04-25 04:58 | 58.35879 | -134.60303 | 137 ft | 138 kts | 107° |
| 2026-04-25 04:58 | 58.35629 | -134.58584 | 30 ft | 119 kts | 103° |
| 2026-04-25 04:58 | 58.35474 | -134.57468 | 32 ft | 56 kts | 105° |
| 2026-04-25 04:59 | 58.35408 | -134.57026 | 33 ft | 32 kts | 104° |
| 2026-04-25 04:59 | 58.35415 | -134.56686 | 32 ft | 19 kts | 27° |
| 2026-04-25 04:59 | 58.35490 | -134.56766 | 32 ft | 11 kts | 289° |
| 2026-04-25 04:59 | 58.35508 | -134.56908 | 33 ft | 16 kts | 285° |
| 2026-04-25 05:00 | 58.35563 | -134.57292 | 33 ft | 40 kts | 283° |
| 2026-04-25 05:00 | 58.35631 | -134.57792 | 32 ft | 38 kts | 283° |
| 2026-04-25 05:00 | 58.35687 | -134.58205 | 33 ft | 17 kts | 283° |
| 2026-04-25 05:00 | 58.35768 | -134.58321 | 34 ft | 11 kts | 337° |
| 2026-04-25 05:01 | 58.35803 | -134.58350 | 32 ft | 4 kts | 342° |
| 2026-04-25 05:01 | 58.35835 | -134.58356 | 34 ft | 0 kts | 4° |